Time;durP1;ratioP1;P1;durP2;ratioP2;P2;SDS_P1;SDS_P2;PMS_P1;PMS_P2;Temp;Humidity;BMP_temperature;BMP_pressure;BME280_temperature;BME280_humidity;BME280_pressure;Samples;Min_cycle;Max_cycle;Signal;HPM_P1;HPM_P2
2023/10/07 00:00:25;;;;;;;0.70;0.70;;;16.00;99.90;;;;;;5093492;28;20032;-79
2023/10/07 00:02:51;;;;;;;0.70;0.50;;;15.90;99.90;;;;;;5097454;28;20043;-79
2023/10/07 00:05:20;;;;;;;0.40;0.40;;;15.90;99.90;;;;;;5097933;28;20051;-77
2023/10/07 00:07:46;;;;;;;0.50;0.50;;;15.90;99.90;;;;;;5097347;28;20551;-78
2023/10/07 00:10:16;;;;;;;1.20;0.87;;;15.90;99.90;;;;;;5097256;28;20122;-76
2023/10/07 00:12:42;;;;;;;0.50;0.45;;;15.90;99.90;;;;;;5097227;28;20133;-78
2023/10/07 00:15:11;;;;;;;0.75;0.75;;;15.90;99.90;;;;;;5097388;28;20052;-76
2023/10/07 00:17:43;;;;;;;1.42;0.55;;;15.90;99.90;;;;;;5097300;28;20052;-78
2023/10/07 00:20:11;;;;;;;0.63;0.52;;;15.90;99.90;;;;;;5097479;28;20043;-79
2023/10/07 00:22:49;;;;;;;0.65;0.65;;;16.10;99.90;;;;;;5097146;28;20382;-78
2023/10/07 00:25:19;;;;;;;0.45;0.45;;;16.00;99.90;;;;;;5097132;28;20119;-78
2023/10/07 00:27:47;;;;;;;0.35;0.35;;;16.00;99.90;;;;;;5097769;28;20044;-79
2023/10/07 00:30:16;;;;;;;0.73;0.73;;;16.00;99.90;;;;;;5097373;28;20046;-76
2023/10/07 00:32:45;;;;;;;0.35;0.35;;;16.00;99.90;;;;;;5097133;28;20040;-76
2023/10/07 00:35:11;;;;;;;0.50;0.50;;;16.00;99.90;;;;;;5096871;28;20123;-77
2023/10/07 00:37:44;;;;;;;0.60;0.60;;;16.00;99.90;;;;;;5097304;28;20090;-77
2023/10/07 00:42:52;;;;;;;0.40;0.40;;;16.00;99.90;;;;;;5097096;28;20044;-78
2023/10/07 00:45:20;;;;;;;0.40;0.40;;;16.00;99.90;;;;;;5096835;28;20119;-77
2023/10/07 00:47:49;;;;;;;0.70;0.70;;;16.00;99.90;;;;;;5096883;28;20032;-77
2023/10/07 00:50:16;;;;;;;0.40;0.40;;;16.00;99.90;;;;;;5096636;28;20039;-77
2023/10/07 00:55:22;;;;;;;0.93;0.60;;;16.00;99.90;;;;;;5097185;28;20131;-77
2023/10/07 00:57:51;;;;;;;0.40;0.40;;;16.00;99.90;;;;;;5096386;28;20040;-78
2023/10/07 01:02:57;;;;;;;0.40;0.40;;;16.00;99.90;;;;;;5096423;28;20047;-77
2023/10/07 01:05:25;;;;;;;0.40;0.40;;;15.90;99.90;;;;;;5096440;28;20043;-77
2023/10/07 01:07:53;;;;;;;0.68;0.68;;;16.00;99.90;;;;;;5096639;28;20101;-78
2023/10/07 01:10:26;;;;;;;0.98;0.68;;;16.00;99.90;;;;;;5096183;28;20052;-79
2023/10/07 01:12:55;;;;;;;0.43;0.43;;;16.00;99.90;;;;;;5095593;28;20044;-78
2023/10/07 01:15:24;;;;;;;0.38;0.38;;;16.00;99.90;;;;;;5096479;28;20039;-77
2023/10/07 01:17:56;;;;;;;0.98;0.60;;;15.90;99.90;;;;;;5096181;28;20040;-79
2023/10/07 01:20:22;;;;;;;0.30;0.30;;;16.00;99.90;;;;;;5096759;28;20121;-77
2023/10/07 01:23:03;;;;;;;0.40;0.40;;;16.00;99.90;;;;;;5096176;28;20094;-79
2023/10/07 01:25:31;;;;;;;0.38;0.38;;;16.00;99.90;;;;;;5096465;28;20051;-77
2023/10/07 01:28:00;;;;;;;0.95;0.32;;;15.90;99.90;;;;;;5096065;28;20388;-77
2023/10/07 01:30:29;;;;;;;1.35;1.25;;;16.00;99.90;;;;;;5095969;28;20040;-79
2023/10/07 01:33:02;;;;;;;0.43;0.43;;;16.00;99.90;;;;;;5095953;28;20098;-79
2023/10/07 01:35:40;;;;;;;0.40;0.40;;;16.00;99.90;;;;;;5095572;28;20468;-79
2023/10/07 01:38:08;;;;;;;1.17;0.40;;;16.00;99.90;;;;;;5095835;28;20146;-77
2023/10/07 01:40:53;;;;;;;0.50;0.50;;;16.00;99.90;;;;;;5095603;28;20142;-78
2023/10/07 01:43:19;;;;;;;0.47;0.47;;;16.10;99.90;;;;;;5095577;28;20043;-79
2023/10/07 01:45:47;;;;;;;0.30;0.30;;;16.10;99.90;;;;;;5094816;28;20043;-77
2023/10/07 01:48:13;;;;;;;0.43;0.43;;;16.10;99.90;;;;;;5095580;28;20048;-79
2023/10/07 01:50:40;;;;;;;0.50;0.50;;;16.10;99.90;;;;;;5095535;28;20043;-78
2023/10/07 01:53:06;;;;;;;;;;;16.10;99.90;;;;;;5095928;28;20097;-77
2023/10/07 01:55:36;;;;;;;0.38;0.38;;;16.10;99.90;;;;;;5095367;28;19916;-78
2023/10/07 01:58:02;;;;;;;0.65;0.40;;;16.00;99.90;;;;;;5095348;28;20044;-77
2023/10/07 02:00:51;;;;;;;0.47;0.47;;;16.20;99.90;;;;;;5095300;28;20361;-78
2023/10/07 02:03:16;;;;;;;0.50;0.50;;;16.20;99.90;;;;;;5094867;28;20043;-78
2023/10/07 02:05:52;;;;;;;0.80;0.80;;;16.20;99.90;;;;;;5095235;28;20043;-76
2023/10/07 02:08:22;;;;;;;0.80;0.80;;;16.20;99.90;;;;;;5095153;28;20052;-77
2023/10/07 02:10:50;;;;;;;0.50;0.50;;;16.20;99.90;;;;;;5095096;28;20032;-78
2023/10/07 02:13:21;;;;;;;0.40;0.40;;;16.20;99.90;;;;;;5095008;28;20040;-76
2023/10/07 02:15:54;;;;;;;0.82;0.75;;;16.20;99.90;;;;;;5095038;28;20048;-79
2023/10/07 02:18:21;;;;;;;0.40;0.30;;;16.20;99.90;;;;;;5095088;28;20048;-78
2023/10/07 02:21:07;;;;;;;0.30;0.30;;;16.20;99.90;;;;;;5094799;28;20047;-79
2023/10/07 02:23:40;;;;;;;0.43;0.43;;;16.30;99.90;;;;;;5095333;28;20040;-79
2023/10/07 02:26:07;;;;;;;0.50;0.50;;;16.40;99.90;;;;;;5094804;28;20052;-78
2023/10/07 02:28:34;;;;;;;;;;;16.30;99.90;;;;;;5095317;28;20055;-77
2023/10/07 02:31:07;;;;;;;1.48;1.10;;;16.20;99.90;;;;;;5094478;28;19967;-77
2023/10/07 02:33:41;;;;;;;0.65;0.60;;;16.30;99.90;;;;;;5095137;28;20365;-78
2023/10/07 02:36:12;;;;;;;0.40;0.40;;;16.30;99.90;;;;;;5094972;28;20050;-76
2023/10/07 02:38:41;;;;;;;0.52;0.52;;;16.30;99.90;;;;;;5094676;28;20471;-77
2023/10/07 02:41:17;;;;;;;0.40;0.40;;;16.40;99.90;;;;;;5094413;28;20051;-78
2023/10/07 02:43:48;;;;;;;0.50;0.50;;;16.40;99.90;;;;;;5094729;28;20054;-78
2023/10/07 02:49:14;;;;;;;0.50;0.50;;;16.40;99.90;;;;;;5080996;28;20126;-79
2023/10/07 02:51:44;;;;;;;0.45;0.45;;;16.40;99.90;;;;;;5094333;28;20098;-77
2023/10/07 02:54:19;;;;;;;0.85;0.85;;;16.40;99.90;;;;;;5095077;28;20044;-77
2023/10/07 02:57:40;;;;;;;0.32;0.32;;;16.40;99.90;;;;;;5094719;28;20036;-77
2023/10/07 02:59:50;;;;;;;0.98;0.65;;;16.40;99.90;;;;;;5082991;28;20044;-78
2023/10/07 03:04:58;;;;;;;0.45;0.45;;;16.40;99.90;;;;;;5094437;28;20051;-77
2023/10/07 03:07:25;;;;;;;1.30;0.90;;;16.30;99.90;;;;;;5094136;28;20388;-79
2023/10/07 03:10:16;;;;;;;0.57;0.52;;;16.40;99.90;;;;;;5094186;28;20097;-77
2023/10/07 03:12:56;;;;;;;0.20;0.20;;;16.40;99.90;;;;;;5093956;28;20036;-78
2023/10/07 03:18:00;;;;;;;0.43;0.43;;;16.50;99.90;;;;;;5094398;28;20391;-77
2023/10/07 03:20:31;;;;;;;0.50;0.50;;;16.40;99.90;;;;;;5093873;28;20123;-78
2023/10/07 03:23:11;;;;;;;2.08;0.93;;;16.40;99.90;;;;;;5094032;28;20044;-77
2023/10/07 03:26:05;;;;;;;0.40;0.40;;;16.40;99.90;;;;;;5093973;28;20047;-77
2023/10/07 03:28:36;;;;;;;0.30;0.30;;;16.50;99.90;;;;;;5093907;28;20047;-78
2023/10/07 03:31:10;;;;;;;0.65;0.65;;;16.50;99.90;;;;;;5093785;28;20072;-77
2023/10/07 03:33:45;;;;;;;0.32;0.32;;;16.50;99.90;;;;;;5092840;28;20518;-78
2023/10/07 03:38:55;;;;;;;0.30;0.30;;;16.50;99.90;;;;;;5094107;28;20048;-75
2023/10/07 03:41:21;;;;;;;0.40;0.40;;;16.50;99.90;;;;;;5093978;28;20036;-76
2023/10/07 03:43:47;;;;;;;2.95;1.20;;;16.50;99.90;;;;;;5093760;28;20044;-77
2023/10/07 03:46:16;;;;;;;0.37;0.37;;;16.50;99.90;;;;;;5093655;28;20357;-78
2023/10/07 03:48:53;;;;;;;0.40;0.40;;;16.50;99.90;;;;;;5094095;28;20410;-76
2023/10/07 03:51:21;;;;;;;0.60;0.50;;;16.50;99.90;;;;;;5093683;28;20040;-76
2023/10/07 03:53:49;;;;;;;0.40;0.40;;;16.50;99.90;;;;;;5093640;28;20040;-76
2023/10/07 03:56:16;;;;;;;0.30;0.30;;;16.50;99.90;;;;;;5093569;28;20036;-75
2023/10/07 03:58:43;;;;;;;0.40;0.40;;;16.60;99.90;;;;;;5093472;28;20048;-77
2023/10/07 04:01:17;;;;;;;1.13;1.02;;;16.60;99.90;;;;;;5093827;28;20048;-76
2023/10/07 04:03:47;;;;;;;0.30;0.30;;;16.50;99.90;;;;;;5093855;28;20075;-77
2023/10/07 04:06:16;;;;;;;0.40;0.40;;;16.50;99.90;;;;;;5093489;28;20090;-75
2023/10/07 04:08:44;;;;;;;0.45;0.43;;;16.50;99.90;;;;;;5093814;28;20093;-76
2023/10/07 04:11:19;;;;;;;0.30;0.30;;;16.50;99.90;;;;;;5093264;28;20036;-78
2023/10/07 04:13:45;;;;;;;0.47;0.47;;;16.50;99.90;;;;;;5093819;28;20040;-75
2023/10/07 04:16:24;;;;;;;0.60;0.57;;;16.50;99.90;;;;;;5093112;28;20459;-76
2023/10/07 04:21:56;;;;;;;0.40;0.40;;;16.50;99.90;;;;;;5031003;28;20042;-77
2023/10/07 04:24:28;;;;;;;0.53;0.53;;;16.50;99.90;;;;;;5080541;28;20126;-78
2023/10/07 04:26:54;;;;;;;0.57;0.43;;;16.50;99.90;;;;;;5093661;28;20310;-77
2023/10/07 04:29:21;;;;;;;0.45;0.45;;;16.50;99.90;;;;;;5093529;28;20489;-75
2023/10/07 04:31:51;;;;;;;0.50;0.50;;;16.50;99.90;;;;;;5093458;28;20054;-78
2023/10/07 04:34:23;;;;;;;0.40;0.40;;;16.50;99.90;;;;;;5093229;28;20379;-78
2023/10/07 04:39:28;;;;;;;0.40;0.40;;;16.50;99.90;;;;;;5093690;28;20379;-78
2023/10/07 04:41:59;;;;;;;1.02;0.75;;;16.50;99.90;;;;;;5093006;28;20050;-76
2023/10/07 04:52:30;;;;;;;0.47;0.47;;;16.50;99.90;;;;;;5096888;28;20093;-78
2023/10/07 04:55:00;;;;;;;0.50;0.50;;;16.50;99.90;;;;;;5095259;28;20044;-77
2023/10/07 05:00:27;;;;;;;2.53;0.60;;;16.50;99.90;;;;;;5096574;28;20044;-77
2023/10/07 05:02:57;;;;;;;0.50;0.50;;;16.50;99.90;;;;;;5095420;28;20075;-77
2023/10/07 05:05:29;;;;;;;1.70;0.40;;;16.50;99.90;;;;;;5095198;28;20044;-81
2023/10/07 05:07:58;;;;;;;0.93;0.88;;;16.50;99.90;;;;;;5096880;28;20050;-76
2023/10/07 05:10:28;;;;;;;0.60;0.60;;;16.50;99.90;;;;;;5096260;28;20044;-79
2023/10/07 05:12:55;;;;;;;0.88;0.52;;;16.50;99.90;;;;;;5097217;28;20051;-78
2023/10/07 05:15:21;;;;;;;;;;;16.50;99.90;;;;;;5096979;28;20065;-77
2023/10/07 05:17:47;;;;;;;0.70;0.70;;;16.50;99.90;;;;;;5096267;28;19978;-74
2023/10/07 05:20:27;;;;;;;0.53;0.53;;;16.50;99.90;;;;;;5095810;28;20411;-74
2023/10/07 05:22:53;;;;;;;0.30;0.30;;;16.50;99.90;;;;;;5096516;28;20044;-74
2023/10/07 05:25:21;;;;;;;0.40;0.40;;;16.50;99.90;;;;;;5096156;28;20054;-75
2023/10/07 05:27:47;;;;;;;3.00;1.10;;;16.50;99.90;;;;;;5096030;28;20036;-75
2023/10/07 05:30:15;;;;;;;0.65;0.47;;;16.50;99.90;;;;;;5096125;28;20032;-74
2023/10/07 05:32:41;;;;;;;0.40;0.40;;;16.50;99.90;;;;;;5095781;28;20036;-74
2023/10/07 05:35:08;;;;;;;0.50;0.50;;;16.60;99.90;;;;;;5096391;28;20115;-75
2023/10/07 05:37:34;;;;;;;0.82;0.60;;;16.60;99.90;;;;;;5096172;28;20040;-75
2023/10/07 05:40:02;;;;;;;0.40;0.40;;;16.60;99.90;;;;;;5095662;28;20084;-73
2023/10/07 05:42:28;;;;;;;1.10;0.50;;;16.60;99.90;;;;;;5095391;28;20044;-74
2023/10/07 05:44:54;;;;;;;0.70;0.70;;;16.60;99.90;;;;;;5095627;28;20059;-74
2023/10/07 05:47:21;;;;;;;0.43;0.37;;;16.60;99.90;;;;;;5096004;28;20047;-79
2023/10/07 05:49:46;;;;;;;0.30;0.30;;;16.60;99.90;;;;;;5095439;28;20059;-80
2023/10/07 05:52:12;;;;;;;0.77;0.63;;;16.60;99.90;;;;;;5094026;28;20036;-77
2023/10/07 05:54:38;;;;;;;0.50;0.50;;;16.60;99.90;;;;;;5095496;28;20071;-76
2023/10/07 05:57:05;;;;;;;0.83;0.83;;;16.60;99.90;;;;;;5095401;28;20098;-75
2023/10/07 05:59:34;;;;;;;0.43;0.43;;;16.60;99.90;;;;;;5094818;28;20075;-72
2023/10/07 06:02:01;;;;;;;0.88;0.88;;;16.60;99.90;;;;;;5095126;28;20068;-74
2023/10/07 06:04:30;;;;;;;1.17;0.70;;;16.60;99.90;;;;;;5095264;28;20043;-74
2023/10/07 06:06:56;;;;;;;0.32;0.32;;;16.60;99.90;;;;;;5095218;28;20081;-74
2023/10/07 06:09:22;;;;;;;0.40;0.40;;;16.60;99.90;;;;;;5094814;28;20418;-75
2023/10/07 06:11:50;;;;;;;1.17;1.08;;;16.60;99.90;;;;;;5095115;28;20093;-74
2023/10/07 06:14:18;;;;;;;0.52;0.52;;;16.60;99.90;;;;;;5094799;28;20044;-73
2023/10/07 06:16:44;;;;;;;0.30;0.30;;;16.60;99.90;;;;;;5094971;28;20040;-74
2023/10/07 06:19:13;;;;;;;0.60;0.60;;;16.60;99.90;;;;;;5095000;28;20046;-76
2023/10/07 06:21:51;;;;;;;0.93;0.32;;;16.60;99.90;;;;;;5094805;28;20114;-79
2023/10/07 06:24:23;;;;;;;0.93;0.47;;;16.60;99.90;;;;;;5094915;28;20352;-75
2023/10/07 06:26:51;;;;;;;0.40;0.40;;;16.70;99.90;;;;;;5095002;28;20105;-75
2023/10/07 06:29:20;;;;;;;0.30;0.30;;;16.70;99.90;;;;;;5094589;28;20036;-77
2023/10/07 06:31:55;;;;;;;0.40;0.40;;;16.70;99.90;;;;;;5093471;28;20032;-75
2023/10/07 06:34:26;;;;;;;0.40;0.40;;;16.60;99.90;;;;;;5094707;28;20032;-81
2023/10/07 06:36:56;;;;;;;0.40;0.40;;;16.70;99.90;;;;;;5094643;28;20070;-74
2023/10/07 06:39:27;;;;;;;0.95;0.60;;;16.70;99.90;;;;;;5094635;28;20502;-78
2023/10/07 06:41:55;;;;;;;0.30;0.30;;;16.70;99.90;;;;;;5094572;28;20040;-80
2023/10/07 06:44:23;;;;;;;0.40;0.40;;;16.70;99.90;;;;;;5094918;28;20100;-78
2023/10/07 06:46:55;;;;;;;0.45;0.32;;;16.70;99.90;;;;;;5094559;28;20051;-78
2023/10/07 06:49:21;;;;;;;0.47;0.47;;;16.70;99.90;;;;;;5094449;28;20040;-77
2023/10/07 06:51:56;;;;;;;0.30;0.30;;;16.70;99.90;;;;;;5094328;28;20040;-74
2023/10/07 06:54:23;;;;;;;0.88;0.65;;;16.70;99.90;;;;;;5094296;28;20040;-75
2023/10/07 06:56:51;;;;;;;;;;;16.70;99.90;;;;;;5094709;28;20051;-77
2023/10/07 06:59:17;;;;;;;0.57;0.57;;;16.70;99.90;;;;;;5094534;28;19969;-75
2023/10/07 07:04:13;;;;;;;1.03;1.03;;;16.60;99.90;;;;;;5094389;28;20040;-74
2023/10/07 07:06:43;;;;;;;0.40;0.40;;;16.60;99.90;;;;;;5094189;28;20051;-76
2023/10/07 07:11:59;;;;;;;0.30;0.30;;;16.70;99.90;;;;;;5092030;28;20052;-73
2023/10/07 07:14:28;;;;;;;0.80;0.50;;;16.70;99.90;;;;;;5094069;28;20043;-75
2023/10/07 07:17:06;;;;;;;0.35;0.35;;;16.60;99.90;;;;;;5093975;28;20044;-75
2023/10/07 07:19:39;;;;;;;0.35;0.35;;;16.70;99.90;;;;;;5093969;28;20118;-74
2023/10/07 07:22:04;;;;;;;1.20;0.60;;;16.70;99.90;;;;;;5093876;28;20028;-74
2023/10/07 07:24:31;;;;;;;0.43;0.33;;;16.70;99.90;;;;;;5093699;28;20518;-73
2023/10/07 07:26:56;;;;;;;0.50;0.50;;;16.70;99.90;;;;;;5093621;28;20467;-75
2023/10/07 07:29:23;;;;;;;0.50;0.50;;;16.70;99.90;;;;;;5093124;28;20055;-74
2023/10/07 07:31:49;;;;;;;1.02;0.88;;;16.70;99.90;;;;;;5093824;28;20047;-76
2023/10/07 07:34:27;;;;;;;0.70;0.70;;;16.70;99.90;;;;;;5093478;28;20051;-75
2023/10/07 07:37:02;;;;;;;9.63;0.98;;;16.80;99.90;;;;;;5094121;28;20414;-72
2023/10/07 07:39:30;;;;;;;0.30;0.30;;;16.80;99.90;;;;;;5092857;28;20383;-74
2023/10/07 07:41:58;;;;;;;0.60;0.60;;;16.90;99.90;;;;;;5093590;28;20078;-73
2023/10/07 07:44:33;;;;;;;0.60;0.52;;;17.00;99.90;;;;;;5093637;28;20429;-74
2023/10/07 07:47:02;;;;;;;0.52;0.50;;;17.00;99.90;;;;;;5093769;28;20040;-74
2023/10/07 07:49:38;;;;;;;1.05;0.68;;;17.10;99.90;;;;;;5093651;28;20086;-74
2023/10/07 07:52:08;;;;;;;0.38;0.38;;;17.20;99.90;;;;;;5093574;28;20040;-73
2023/10/07 07:54:33;;;;;;;2.10;0.47;;;17.30;99.90;;;;;;5093538;28;20036;-73
2023/10/07 07:57:04;;;;;;;0.60;0.60;;;17.30;99.90;;;;;;5093460;28;20047;-74
2023/10/07 07:59:32;;;;;;;0.80;0.65;;;17.30;99.90;;;;;;5094132;28;20040;-74
2023/10/07 08:02:15;;;;;;;0.90;0.85;;;17.40;99.90;;;;;;5093962;28;20040;-75
2023/10/07 08:04:48;;;;;;;2.20;0.45;;;17.50;99.90;;;;;;5093795;28;20083;-75
2023/10/07 08:09:55;;;;;;;0.45;0.45;;;17.50;99.90;;;;;;5093412;28;20052;-75
2023/10/07 08:12:36;;;;;;;0.20;0.20;;;17.50;99.90;;;;;;5093583;28;20043;-77
2023/10/07 08:15:14;;;;;;;0.35;0.32;;;17.50;99.90;;;;;;5093500;28;20123;-78
2023/10/07 08:17:44;;;;;;;0.30;0.30;;;17.60;99.90;;;;;;5093405;28;20079;-77
2023/10/07 08:20:11;;;;;;;0.50;0.45;;;17.70;99.90;;;;;;5093225;28;20040;-78
2023/10/07 08:22:44;;;;;;;0.60;0.60;;;17.70;99.90;;;;;;5094855;28;20108;-81
2023/10/07 08:25:25;;;;;;;0.40;0.40;;;17.70;99.90;;;;;;5097186;28;20077;-78
2023/10/07 08:27:55;;;;;;;1.05;0.60;;;17.80;99.90;;;;;;5097190;28;20499;-79
2023/10/07 08:30:37;;;;;;;0.50;0.40;;;17.80;99.90;;;;;;5097033;28;20040;-79
2023/10/07 08:33:06;;;;;;;0.40;0.40;;;17.90;99.90;;;;;;5097014;28;20058;-79
2023/10/07 08:35:34;;;;;;;0.30;0.30;;;18.00;99.90;;;;;;5096159;28;20040;-79
2023/10/07 08:38:19;;;;;;;3.58;0.60;;;18.00;99.90;;;;;;5097224;28;20472;-79
2023/10/07 08:40:49;;;;;;;0.52;0.52;;;18.00;99.90;;;;;;5097071;28;20085;-79
2023/10/07 08:43:25;;;;;;;0.40;0.40;;;18.10;99.90;;;;;;5097639;28;20040;-78
2023/10/07 08:45:51;;;;;;;0.30;0.30;;;18.20;99.90;;;;;;5097360;28;20044;-79
2023/10/07 08:48:17;;;;;;;0.60;0.60;;;18.20;99.90;;;;;;5097034;28;20173;-79
2023/10/07 08:50:55;;;;;;;0.50;0.50;;;18.10;99.90;;;;;;5096887;28;20046;-79
2023/10/07 08:53:26;;;;;;;0.43;0.40;;;18.10;99.90;;;;;;5096755;28;20119;-78
2023/10/07 08:56:00;;;;;;;0.65;0.45;;;18.10;99.90;;;;;;5096755;28;20043;-79
2023/10/07 08:58:29;;;;;;;0.40;0.40;;;18.20;99.90;;;;;;5096463;28;20036;-78
2023/10/07 09:00:56;;;;;;;1.00;0.68;;;18.10;99.90;;;;;;5096477;28;20043;-78
2023/10/07 09:03:26;;;;;;;0.57;0.57;;;18.00;99.90;;;;;;5096165;28;20044;-78
2023/10/07 09:05:55;;;;;;;0.35;0.35;;;18.00;99.90;;;;;;5096411;28;20559;-78
2023/10/07 09:08:22;;;;;;;0.35;0.35;;;18.10;99.90;;;;;;5096486;28;20420;-79
2023/10/07 09:10:50;;;;;;;;;;;18.00;99.90;;;;;;5096740;28;20036;-72
2023/10/07 09:13:29;;;;;;;0.50;0.50;;;18.00;99.90;;;;;;5096403;28;19920;-72
2023/10/07 09:15:59;;;;;;;0.40;0.40;;;18.10;99.90;;;;;;5096328;28;20094;-72
2023/10/07 09:18:31;;;;;;;0.98;0.90;;;18.10;99.90;;;;;;5096269;28;20071;-72
2023/10/07 09:20:57;;;;;;;0.30;0.30;;;18.10;99.90;;;;;;5096094;28;20036;-72
2023/10/07 09:23:33;;;;;;;0.30;0.30;;;18.20;99.90;;;;;;5096200;28;20085;-72
2023/10/07 09:26:16;;;;;;;0.80;0.63;;;18.40;99.90;;;;;;5096076;28;20042;-72
2023/10/07 09:28:46;;;;;;;1.33;0.65;;;18.50;99.90;;;;;;5096302;28;20040;-72
2023/10/07 09:31:15;;;;;;;0.30;0.30;;;18.60;99.90;;;;;;5095999;28;20082;-72
2023/10/07 09:33:41;;;;;;;0.30;0.30;;;18.70;99.90;;;;;;5095159;28;20048;-72
2023/10/07 09:41:38;;;;;;;0.30;0.30;;;18.90;99.90;;;;;;5063736;28;20043;-72
2023/10/07 09:44:13;;;;;;;0.40;0.40;;;19.00;99.90;;;;;;5095727;28;20106;-72
2023/10/07 09:46:44;;;;;;;0.47;0.47;;;19.10;99.90;;;;;;5094524;28;20105;-72
2023/10/07 09:49:14;;;;;;;0.57;0.57;;;19.10;99.90;;;;;;5095537;28;20036;-72
2023/10/07 09:51:47;;;;;;;0.30;0.30;;;19.20;99.90;;;;;;5095553;28;20032;-72
2023/10/07 09:54:47;;;;;;;0.55;0.55;;;19.30;99.90;;;;;;5095481;28;20044;-73
2023/10/07 09:57:20;;;;;;;0.73;0.60;;;19.30;99.90;;;;;;5095731;28;20047;-73
2023/10/07 10:03:04;;;;;;;0.40;0.40;;;19.40;99.90;;;;;;5013114;28;20461;-71
2023/10/07 10:05:49;;;;;;;0.70;0.70;;;19.40;99.90;;;;;;5087692;28;20047;-71
2023/10/07 10:08:28;;;;;;;0.50;0.50;;;19.40;99.90;;;;;;5094896;28;20052;-73
2023/10/07 10:10:58;;;;;;;0.35;0.35;;;19.40;99.90;;;;;;5095211;28;20462;-75
2023/10/07 10:16:12;;;;;;;0.90;0.35;;;19.50;99.90;;;;;;5095357;28;20349;-75
2023/10/07 10:18:45;;;;;;;0.77;0.60;;;19.60;99.90;;;;;;5099272;28;20121;-73
2023/10/07 10:21:12;;;;;;;0.40;0.40;;;19.60;99.90;;;;;;5093710;28;20400;-73
2023/10/07 10:23:44;;;;;;;0.65;0.47;;;19.70;99.90;;;;;;5094750;28;20048;-79
2023/10/07 10:26:14;;;;;;;0.85;0.63;;;19.70;99.90;;;;;;5094840;28;20044;-72
2023/10/07 10:29:00;;;;;;;0.35;0.35;;;19.60;99.90;;;;;;5095094;28;20044;-73
2023/10/07 10:31:32;;;;;;;0.60;0.60;;;19.60;99.90;;;;;;5094812;28;20380;-72
2023/10/07 10:34:05;;;;;;;0.30;0.30;;;19.50;99.90;;;;;;5094666;28;20048;-72
2023/10/07 10:36:36;;;;;;;0.30;0.30;;;19.50;99.90;;;;;;5094641;28;20039;-75
2023/10/07 10:39:05;;;;;;;0.40;0.40;;;19.50;99.90;;;;;;5094806;28;20414;-75
2023/10/07 10:41:32;;;;;;;0.30;0.30;;;19.50;99.90;;;;;;5094463;28;20040;-75
2023/10/07 10:44:10;;;;;;;0.30;0.30;;;19.50;99.90;;;;;;5094263;28;20046;-76
2023/10/07 10:46:44;;;;;;;0.60;0.60;;;19.50;99.90;;;;;;5092994;28;20032;-75
2023/10/07 10:49:12;;;;;;;0.30;0.30;;;19.50;99.90;;;;;;5094210;28;20046;-76
2023/10/07 10:51:45;;;;;;;0.77;0.77;;;19.60;99.90;;;;;;5094306;28;20480;-75
2023/10/07 10:54:13;;;;;;;1.00;0.57;;;19.60;99.90;;;;;;5094356;28;20085;-76
2023/10/07 10:56:57;;;;;;;0.85;0.63;;;19.80;99.90;;;;;;5093761;28;20364;-75
2023/10/07 10:59:42;;;;;;;0.40;0.40;;;20.00;99.90;;;;;;5094167;28;20134;-77
2023/10/07 11:02:12;;;;;;;0.30;0.30;;;20.20;99.90;;;;;;5093960;28;20047;-75
2023/10/07 11:04:38;;;;;;;0.50;0.43;;;20.30;99.90;;;;;;5094013;28;20131;-77
2023/10/07 11:07:07;;;;;;;0.40;0.40;;;20.30;99.90;;;;;;5093905;28;20087;-76
2023/10/07 11:09:37;;;;;;;0.60;0.60;;;20.30;99.90;;;;;;5093512;28;20051;-76
2023/10/07 11:12:09;;;;;;;0.85;0.47;;;20.30;99.90;;;;;;5093829;28;20078;-75
2023/10/07 11:14:36;;;;;;;0.50;0.50;;;20.30;99.90;;;;;;5093798;28;20087;-75
2023/10/07 11:17:03;;;;;;;0.52;0.52;;;20.30;99.90;;;;;;5093772;28;20036;-75
2023/10/07 11:19:30;;;;;;;0.40;0.40;;;20.30;99.90;;;;;;5093626;28;20407;-76
2023/10/07 11:21:56;;;;;;;;;;;20.30;99.90;;;;;;5093853;28;20592;-78
2023/10/07 11:24:26;;;;;;;0.47;0.47;;;20.30;99.90;;;;;;5093792;28;19998;-77
2023/10/07 11:26:56;;;;;;;1.67;0.75;;;20.40;99.90;;;;;;5093912;28;20383;-75
2023/10/07 11:29:22;;;;;;;0.45;0.45;;;20.40;99.90;;;;;;5093815;28;20494;-77
2023/10/07 11:31:57;;;;;;;;;;;20.40;99.90;;;;;;5094000;28;20055;-76
2023/10/07 11:34:32;;;;;;;0.60;0.60;;;20.30;99.90;;;;;;5092811;28;20240;-77
2023/10/07 11:37:09;;;;;;;1.02;0.70;;;20.30;99.90;;;;;;5093755;28;20036;-77
2023/10/07 11:39:44;;;;;;;1.10;0.95;;;20.30;99.90;;;;;;5093484;28;20048;-74
2023/10/07 11:42:18;;;;;;;0.30;0.30;;;20.30;99.90;;;;;;5093533;28;20131;-77
2023/10/07 11:44:49;;;;;;;0.85;0.50;;;20.20;99.90;;;;;;5093615;28;20036;-76
2023/10/07 11:47:16;;;;;;;1.27;0.68;;;20.20;99.90;;;;;;5091971;28;20040;-75
2023/10/07 11:49:46;;;;;;;0.45;0.45;;;20.30;99.90;;;;;;5073502;28;20051;-76
2023/10/07 11:52:12;;;;;;;0.35;0.35;;;20.30;99.90;;;;;;5073888;28;20078;-76
2023/10/07 11:54:39;;;;;;;1.00;0.55;;;20.30;99.90;;;;;;5073452;28;20040;-76
2023/10/07 11:57:05;;;;;;;;;;;20.40;99.90;;;;;;5074523;28;20094;-76
2023/10/07 11:59:33;;;;;;;0.60;0.60;;;20.50;99.90;;;;;;5077525;28;19916;-77
2023/10/07 12:02:00;;;;;;;0.60;0.60;;;20.50;99.90;;;;;;5076279;28;20427;-77
2023/10/07 12:04:26;;;;;;;0.30;0.30;;;20.50;99.90;;;;;;5078050;28;20094;-75
2023/10/07 12:06:53;;;;;;;0.40;0.40;;;20.60;99.90;;;;;;5077453;28;20079;-75
2023/10/07 12:09:21;;;;;;;;;;;20.60;99.90;;;;;;5077749;28;20404;-76
2023/10/07 12:11:48;;;;;;;0.70;0.70;;;20.60;99.90;;;;;;5077280;28;19928;-76
2023/10/07 12:14:14;;;;;;;;;;;20.60;99.90;;;;;;5077568;28;20045;-75
2023/10/07 12:16:43;;;;;;;2.58;0.55;;;20.60;99.90;;;;;;5077179;28;20368;-77
2023/10/07 12:19:11;;;;;;;0.38;0.38;;;20.80;99.90;;;;;;5077085;28;20040;-74
2023/10/07 12:21:39;;;;;;;2.22;0.85;;;20.90;99.90;;;;;;5076852;28;20372;-76
2023/10/07 12:24:06;;;;;;;0.73;0.45;;;21.10;99.90;;;;;;5077069;28;20055;-76
2023/10/07 12:26:31;;;;;;;2.60;0.70;;;21.20;99.90;;;;;;5076806;28;20052;-76
2023/10/07 12:28:58;;;;;;;0.37;0.37;;;21.10;99.90;;;;;;5076791;28;20036;-77
2023/10/07 12:31:24;;;;;;;;;;;21.10;99.90;;;;;;5077173;28;20115;-77
2023/10/07 12:33:50;;;;;;;0.57;0.50;;;21.00;99.90;;;;;;5077078;28;19923;-75
2023/10/07 12:36:18;;;;;;;;;;;20.80;99.90;;;;;;5076998;28;20036;-77
2023/10/07 12:38:44;;;;;;;0.50;0.50;;;20.70;99.90;;;;;;5076624;28;19920;-76
2023/10/07 12:41:12;;;;;;;0.47;0.47;;;20.80;99.90;;;;;;5076563;28;20039;-77
2023/10/07 12:43:38;;;;;;;2.63;0.90;;;20.80;99.90;;;;;;5076565;28;20036;-75
2023/10/07 12:46:10;;;;;;;3.00;0.50;;;20.70;99.90;;;;;;5076557;28;20059;-77
2023/10/07 12:48:40;;;;;;;0.40;0.40;;;20.70;99.90;;;;;;5076364;28;20112;-77
2023/10/07 12:51:09;;;;;;;0.80;0.68;;;20.70;99.90;;;;;;5076641;28;20541;-77
2023/10/07 12:53:35;;;;;;;2.33;0.63;;;20.60;99.90;;;;;;5092175;28;20036;-75
2023/10/07 12:56:13;;;;;;;1.65;0.57;;;20.50;99.90;;;;;;5076389;28;20127;-76
2023/10/07 12:58:39;;;;;;;2.10;0.50;;;20.50;99.90;;;;;;5076421;28;20040;-77
2023/10/07 13:01:11;;;;;;;0.65;0.65;;;20.40;99.90;;;;;;5076132;28;20066;-76
2023/10/07 13:03:43;;;;;;;0.40;0.35;;;20.30;99.90;;;;;;5076338;28;20093;-77
2023/10/07 13:06:14;;;;;;;0.40;0.40;;;20.30;99.90;;;;;;5076395;28;20534;-74
2023/10/07 13:08:40;;;;;;;0.50;0.50;;;20.30;99.90;;;;;;5074766;28;20049;-76
2023/10/07 13:11:13;;;;;;;3.67;0.53;;;20.30;99.90;;;;;;5076082;28;20181;-76
2023/10/07 13:13:39;;;;;;;0.60;0.60;;;20.40;99.90;;;;;;5076143;28;20048;-75
2023/10/07 13:16:12;;;;;;;0.57;0.55;;;20.40;99.90;;;;;;5076307;28;20044;-76
2023/10/07 13:18:41;;;;;;;0.55;0.55;;;20.40;99.90;;;;;;5075984;28;20047;-78
2023/10/07 13:21:13;;;;;;;0.30;0.30;;;20.40;99.90;;;;;;5075743;28;20037;-76
2023/10/07 13:23:44;;;;;;;0.63;0.63;;;20.40;99.90;;;;;;5075933;28;20040;-77
2023/10/07 13:26:10;;;;;;;0.35;0.35;;;20.40;99.90;;;;;;5076197;28;20043;-76
2023/10/07 13:28:38;;;;;;;0.30;0.30;;;20.40;99.90;;;;;;5075871;28;20361;-77
2023/10/07 13:31:07;;;;;;;0.32;0.32;;;20.40;99.90;;;;;;5075765;28;20051;-76
2023/10/07 13:33:37;;;;;;;0.30;0.30;;;20.40;99.90;;;;;;5075594;28;20075;-76
2023/10/07 13:36:07;;;;;;;0.63;0.43;;;20.40;99.90;;;;;;5075643;28;20040;-77
2023/10/07 13:38:33;;;;;;;0.30;0.30;;;20.40;99.90;;;;;;5075992;28;20044;-77
2023/10/07 13:41:05;;;;;;;0.45;0.45;;;20.30;99.90;;;;;;5075380;28;20101;-77
2023/10/07 13:43:33;;;;;;;0.30;0.30;;;20.30;99.90;;;;;;5075573;28;20051;-74
2023/10/07 13:46:01;;;;;;;0.50;0.50;;;20.30;99.90;;;;;;5075481;28;20044;-77
2023/10/07 13:48:27;;;;;;;0.38;0.38;;;20.20;99.90;;;;;;5075391;28;20044;-76
2023/10/07 13:51:00;;;;;;;0.40;0.40;;;20.20;99.90;;;;;;5075358;28;20111;-77
2023/10/07 13:53:50;;;;;;;0.30;0.30;;;20.20;99.90;;;;;;5075327;28;20072;-77
2023/10/07 13:56:23;;;;;;;0.63;0.45;;;20.20;99.90;;;;;;5075223;28;20041;-76
2023/10/07 13:58:49;;;;;;;0.70;0.68;;;20.10;99.90;;;;;;5075149;28;20032;-75
2023/10/07 14:01:15;;;;;;;2.37;1.13;;;20.10;99.90;;;;;;5075005;28;20435;-78